sensor_id;sensor_type;location;lat;lon;timestamp;P1;durP1;ratioP1;P2;durP2;ratioP2
13374;SDS011;6756;51.354;15.754;2023-12-29T00:03:57;5.77;;;4.50;;
13374;SDS011;6756;51.354;15.754;2023-12-29T00:07:58;6.00;;;3.33;;
13374;SDS011;6756;51.354;15.754;2023-12-29T00:11:59;5.20;;;3.00;;
13374;SDS011;6756;51.354;15.754;2023-12-29T00:16:00;4.03;;;3.07;;
13374;SDS011;6756;51.354;15.754;2023-12-29T00:20:00;4.60;;;3.10;;
13374;SDS011;6756;51.354;15.754;2023-12-29T00:24:01;4.33;;;3.00;;
13374;SDS011;6756;51.354;15.754;2023-12-29T00:28:03;3.77;;;3.20;;
13374;SDS011;6756;51.354;15.754;2023-12-29T00:32:04;3.57;;;3.13;;
13374;SDS011;6756;51.354;15.754;2023-12-29T00:36:05;5.47;;;3.10;;
13374;SDS011;6756;51.354;15.754;2023-12-29T00:40:06;4.90;;;3.00;;
13374;SDS011;6756;51.354;15.754;2023-12-29T00:44:07;4.20;;;3.27;;
13374;SDS011;6756;51.354;15.754;2023-12-29T00:48:08;4.23;;;3.20;;
13374;SDS011;6756;51.354;15.754;2023-12-29T00:52:09;4.40;;;3.50;;
13374;SDS011;6756;51.354;15.754;2023-12-29T00:56:10;5.93;;;3.70;;
13374;SDS011;6756;51.354;15.754;2023-12-29T01:00:11;4.43;;;3.13;;
13374;SDS011;6756;51.354;15.754;2023-12-29T01:04:13;5.13;;;3.60;;
13374;SDS011;6756;51.354;15.754;2023-12-29T01:08:13;6.17;;;4.00;;
13374;SDS011;6756;51.354;15.754;2023-12-29T01:12:14;6.37;;;4.13;;
13374;SDS011;6756;51.354;15.754;2023-12-29T01:16:15;8.23;;;5.20;;
13374;SDS011;6756;51.354;15.754;2023-12-29T01:20:16;6.63;;;4.20;;
13374;SDS011;6756;51.354;15.754;2023-12-29T01:24:16;6.23;;;4.10;;
13374;SDS011;6756;51.354;15.754;2023-12-29T01:28:17;7.97;;;3.87;;
13374;SDS011;6756;51.354;15.754;2023-12-29T01:32:21;5.93;;;3.50;;
13374;SDS011;6756;51.354;15.754;2023-12-29T01:36:22;4.47;;;3.23;;
13374;SDS011;6756;51.354;15.754;2023-12-29T01:40:22;5.13;;;3.27;;
13374;SDS011;6756;51.354;15.754;2023-12-29T01:44:23;7.40;;;3.53;;
13374;SDS011;6756;51.354;15.754;2023-12-29T01:48:24;4.90;;;2.87;;
13374;SDS011;6756;51.354;15.754;2023-12-29T01:52:25;3.90;;;2.80;;
13374;SDS011;6756;51.354;15.754;2023-12-29T01:56:26;4.27;;;2.93;;
13374;SDS011;6756;51.354;15.754;2023-12-29T02:00:27;4.07;;;2.90;;
13374;SDS011;6756;51.354;15.754;2023-12-29T02:04:32;4.83;;;2.90;;
13374;SDS011;6756;51.354;15.754;2023-12-29T02:08:33;5.03;;;3.30;;
13374;SDS011;6756;51.354;15.754;2023-12-29T02:12:34;6.83;;;3.20;;
13374;SDS011;6756;51.354;15.754;2023-12-29T02:20:43;4.77;;;2.93;;
13374;SDS011;6756;51.354;15.754;2023-12-29T02:24:47;3.07;;;2.50;;
13374;SDS011;6756;51.354;15.754;2023-12-29T02:28:56;3.03;;;2.07;;
13374;SDS011;6756;51.354;15.754;2023-12-29T02:33:04;3.43;;;2.60;;
13374;SDS011;6756;51.354;15.754;2023-12-29T02:37:09;2.43;;;2.13;;
13374;SDS011;6756;51.354;15.754;2023-12-29T02:41:12;2.57;;;2.17;;
13374;SDS011;6756;51.354;15.754;2023-12-29T02:45:14;2.57;;;2.30;;
13374;SDS011;6756;51.354;15.754;2023-12-29T02:49:15;3.10;;;2.27;;
13374;SDS011;6756;51.354;15.754;2023-12-29T02:53:16;2.20;;;2.00;;
13374;SDS011;6756;51.354;15.754;2023-12-29T02:57:17;3.10;;;2.20;;
13374;SDS011;6756;51.354;15.754;2023-12-29T03:01:18;2.47;;;1.80;;
13374;SDS011;6756;51.354;15.754;2023-12-29T03:05:19;2.63;;;1.80;;
13374;SDS011;6756;51.354;15.754;2023-12-29T03:09:20;3.37;;;2.20;;
13374;SDS011;6756;51.354;15.754;2023-12-29T03:13:21;2.63;;;1.87;;
13374;SDS011;6756;51.354;15.754;2023-12-29T03:17:21;2.10;;;1.90;;
13374;SDS011;6756;51.354;15.754;2023-12-29T03:21:22;3.63;;;2.20;;
13374;SDS011;6756;51.354;15.754;2023-12-29T03:25:23;2.40;;;2.10;;
13374;SDS011;6756;51.354;15.754;2023-12-29T03:29:27;2.77;;;2.10;;
13374;SDS011;6756;51.354;15.754;2023-12-29T03:33:28;2.10;;;1.90;;
13374;SDS011;6756;51.354;15.754;2023-12-29T03:37:29;2.70;;;2.20;;
13374;SDS011;6756;51.354;15.754;2023-12-29T03:41:29;4.53;;;2.30;;
13374;SDS011;6756;51.354;15.754;2023-12-29T03:45:30;2.30;;;2.10;;
13374;SDS011;6756;51.354;15.754;2023-12-29T03:49:31;2.37;;;1.93;;
13374;SDS011;6756;51.354;15.754;2023-12-29T03:53:38;3.37;;;2.30;;
13374;SDS011;6756;51.354;15.754;2023-12-29T03:57:38;2.87;;;2.17;;
13374;SDS011;6756;51.354;15.754;2023-12-29T04:01:39;3.37;;;2.23;;
13374;SDS011;6756;51.354;15.754;2023-12-29T04:05:40;3.10;;;2.70;;
13374;SDS011;6756;51.354;15.754;2023-12-29T04:09:41;3.40;;;3.07;;
13374;SDS011;6756;51.354;15.754;2023-12-29T04:13:42;4.67;;;3.17;;
13374;SDS011;6756;51.354;15.754;2023-12-29T04:17:43;4.93;;;3.10;;
13374;SDS011;6756;51.354;15.754;2023-12-29T04:21:44;2.70;;;2.40;;
13374;SDS011;6756;51.354;15.754;2023-12-29T04:25:53;3.13;;;2.37;;
13374;SDS011;6756;51.354;15.754;2023-12-29T04:29:54;4.33;;;2.70;;
13374;SDS011;6756;51.354;15.754;2023-12-29T04:33:54;3.33;;;2.63;;
13374;SDS011;6756;51.354;15.754;2023-12-29T04:37:55;3.33;;;2.77;;
13374;SDS011;6756;51.354;15.754;2023-12-29T04:41:56;3.77;;;3.00;;
13374;SDS011;6756;51.354;15.754;2023-12-29T04:45:57;3.53;;;3.10;;
13374;SDS011;6756;51.354;15.754;2023-12-29T04:49:58;5.20;;;3.30;;
13374;SDS011;6756;51.354;15.754;2023-12-29T04:53:59;2.63;;;2.33;;
13374;SDS011;6756;51.354;15.754;2023-12-29T04:58:00;4.13;;;2.90;;
13374;SDS011;6756;51.354;15.754;2023-12-29T05:02:00;2.93;;;2.63;;
13374;SDS011;6756;51.354;15.754;2023-12-29T05:06:01;3.27;;;2.73;;
13374;SDS011;6756;51.354;15.754;2023-12-29T05:10:02;3.50;;;3.00;;
13374;SDS011;6756;51.354;15.754;2023-12-29T05:14:03;3.10;;;2.80;;
13374;SDS011;6756;51.354;15.754;2023-12-29T05:18:04;3.93;;;2.40;;
13374;SDS011;6756;51.354;15.754;2023-12-29T05:22:05;4.43;;;2.70;;
13374;SDS011;6756;51.354;15.754;2023-12-29T05:26:06;4.03;;;2.57;;
13374;SDS011;6756;51.354;15.754;2023-12-29T05:30:07;3.33;;;2.40;;
13374;SDS011;6756;51.354;15.754;2023-12-29T05:34:09;3.43;;;2.73;;
13374;SDS011;6756;51.354;15.754;2023-12-29T05:38:09;3.23;;;2.50;;
13374;SDS011;6756;51.354;15.754;2023-12-29T05:42:10;3.77;;;2.67;;
13374;SDS011;6756;51.354;15.754;2023-12-29T05:46:11;3.23;;;2.60;;
13374;SDS011;6756;51.354;15.754;2023-12-29T05:50:12;3.70;;;2.83;;
13374;SDS011;6756;51.354;15.754;2023-12-29T05:54:13;3.07;;;2.77;;
13374;SDS011;6756;51.354;15.754;2023-12-29T05:58:14;4.37;;;3.07;;
13374;SDS011;6756;51.354;15.754;2023-12-29T06:02:15;4.87;;;3.20;;
13374;SDS011;6756;51.354;15.754;2023-12-29T06:06:15;4.70;;;3.13;;
13374;SDS011;6756;51.354;15.754;2023-12-29T06:10:16;4.43;;;3.17;;
13374;SDS011;6756;51.354;15.754;2023-12-29T06:14:17;3.20;;;2.90;;
13374;SDS011;6756;51.354;15.754;2023-12-29T06:18:18;3.30;;;2.90;;
13374;SDS011;6756;51.354;15.754;2023-12-29T06:22:22;3.60;;;3.00;;
13374;SDS011;6756;51.354;15.754;2023-12-29T06:26:22;6.50;;;2.70;;
13374;SDS011;6756;51.354;15.754;2023-12-29T06:30:23;3.00;;;2.40;;
13374;SDS011;6756;51.354;15.754;2023-12-29T06:34:24;3.90;;;2.93;;
13374;SDS011;6756;51.354;15.754;2023-12-29T06:38:25;2.50;;;2.17;;
13374;SDS011;6756;51.354;15.754;2023-12-29T06:42:26;4.63;;;2.50;;
13374;SDS011;6756;51.354;15.754;2023-12-29T06:46:27;4.83;;;2.80;;
13374;SDS011;6756;51.354;15.754;2023-12-29T06:50:28;3.07;;;2.03;;
13374;SDS011;6756;51.354;15.754;2023-12-29T06:54:33;3.97;;;2.60;;
13374;SDS011;6756;51.354;15.754;2023-12-29T06:58:34;3.03;;;2.13;;
13374;SDS011;6756;51.354;15.754;2023-12-29T07:02:38;2.80;;;2.30;;
13374;SDS011;6756;51.354;15.754;2023-12-29T07:06:42;2.63;;;2.30;;
13374;SDS011;6756;51.354;15.754;2023-12-29T07:10:43;2.63;;;2.43;;
13374;SDS011;6756;51.354;15.754;2023-12-29T07:14:44;2.93;;;2.27;;
13374;SDS011;6756;51.354;15.754;2023-12-29T07:18:45;2.77;;;2.20;;
13374;SDS011;6756;51.354;15.754;2023-12-29T07:22:46;2.57;;;1.90;;
13374;SDS011;6756;51.354;15.754;2023-12-29T07:26:46;3.13;;;2.27;;
13374;SDS011;6756;51.354;15.754;2023-12-29T07:30:47;3.30;;;2.20;;
13374;SDS011;6756;51.354;15.754;2023-12-29T07:34:48;2.50;;;2.30;;
13374;SDS011;6756;51.354;15.754;2023-12-29T07:38:49;2.23;;;2.00;;
13374;SDS011;6756;51.354;15.754;2023-12-29T07:42:50;2.77;;;1.97;;
13374;SDS011;6756;51.354;15.754;2023-12-29T07:46:50;2.20;;;1.80;;
13374;SDS011;6756;51.354;15.754;2023-12-29T07:50:51;4.37;;;1.80;;
13374;SDS011;6756;51.354;15.754;2023-12-29T07:54:52;2.10;;;1.90;;
13374;SDS011;6756;51.354;15.754;2023-12-29T07:58:53;2.07;;;1.73;;
13374;SDS011;6756;51.354;15.754;2023-12-29T08:02:53;3.40;;;1.87;;
13374;SDS011;6756;51.354;15.754;2023-12-29T08:06:54;3.90;;;1.77;;
13374;SDS011;6756;51.354;15.754;2023-12-29T08:10:55;2.57;;;2.33;;
13374;SDS011;6756;51.354;15.754;2023-12-29T08:14:56;2.53;;;1.93;;
13374;SDS011;6756;51.354;15.754;2023-12-29T08:18:57;2.93;;;2.00;;
13374;SDS011;6756;51.354;15.754;2023-12-29T08:22:58;3.53;;;1.90;;
13374;SDS011;6756;51.354;15.754;2023-12-29T08:27:02;2.87;;;2.27;;
13374;SDS011;6756;51.354;15.754;2023-12-29T08:31:03;2.93;;;1.93;;
13374;SDS011;6756;51.354;15.754;2023-12-29T08:35:05;3.03;;;1.80;;
13374;SDS011;6756;51.354;15.754;2023-12-29T08:39:06;3.30;;;2.57;;
13374;SDS011;6756;51.354;15.754;2023-12-29T08:43:10;2.17;;;1.70;;
13374;SDS011;6756;51.354;15.754;2023-12-29T08:47:11;2.43;;;1.90;;
13374;SDS011;6756;51.354;15.754;2023-12-29T08:51:12;2.07;;;1.53;;
13374;SDS011;6756;51.354;15.754;2023-12-29T08:55:12;2.03;;;1.67;;
13374;SDS011;6756;51.354;15.754;2023-12-29T08:59:13;4.47;;;1.80;;
13374;SDS011;6756;51.354;15.754;2023-12-29T09:03:14;3.13;;;1.93;;
13374;SDS011;6756;51.354;15.754;2023-12-29T09:07:15;3.23;;;1.87;;
13374;SDS011;6756;51.354;15.754;2023-12-29T09:11:16;4.97;;;1.30;;
13374;SDS011;6756;51.354;15.754;2023-12-29T09:15:17;1.80;;;1.37;;
13374;SDS011;6756;51.354;15.754;2023-12-29T09:19:17;1.80;;;1.30;;
13374;SDS011;6756;51.354;15.754;2023-12-29T09:23:18;2.37;;;1.50;;
13374;SDS011;6756;51.354;15.754;2023-12-29T09:27:20;1.33;;;1.13;;
13374;SDS011;6756;51.354;15.754;2023-12-29T09:31:21;1.87;;;1.23;;
13374;SDS011;6756;51.354;15.754;2023-12-29T09:35:24;2.50;;;1.23;;
13374;SDS011;6756;51.354;15.754;2023-12-29T09:39:26;2.10;;;1.33;;
13374;SDS011;6756;51.354;15.754;2023-12-29T09:43:29;1.77;;;1.20;;
13374;SDS011;6756;51.354;15.754;2023-12-29T09:47:33;2.87;;;1.43;;
13374;SDS011;6756;51.354;15.754;2023-12-29T09:51:42;1.43;;;1.20;;
13374;SDS011;6756;51.354;15.754;2023-12-29T09:55:43;1.97;;;1.27;;
13374;SDS011;6756;51.354;15.754;2023-12-29T09:59:46;1.97;;;1.33;;
13374;SDS011;6756;51.354;15.754;2023-12-29T10:03:52;2.20;;;1.37;;
13374;SDS011;6756;51.354;15.754;2023-12-29T10:07:52;2.27;;;1.43;;
13374;SDS011;6756;51.354;15.754;2023-12-29T10:11:54;2.17;;;1.50;;
13374;SDS011;6756;51.354;15.754;2023-12-29T10:20:30;2.70;;;1.60;;
13374;SDS011;6756;51.354;15.754;2023-12-29T10:24:44;3.03;;;1.27;;
13374;SDS011;6756;51.354;15.754;2023-12-29T10:28:47;2.73;;;2.10;;
13374;SDS011;6756;51.354;15.754;2023-12-29T10:32:49;2.40;;;1.57;;
13374;SDS011;6756;51.354;15.754;2023-12-29T10:36:51;1.87;;;1.20;;
13374;SDS011;6756;51.354;15.754;2023-12-29T10:40:51;3.17;;;1.20;;
13374;SDS011;6756;51.354;15.754;2023-12-29T10:45:05;2.93;;;1.40;;
13374;SDS011;6756;51.354;15.754;2023-12-29T10:49:11;1.87;;;1.20;;
13374;SDS011;6756;51.354;15.754;2023-12-29T10:53:16;2.37;;;1.77;;
13374;SDS011;6756;51.354;15.754;2023-12-29T10:57:17;2.03;;;1.30;;
13374;SDS011;6756;51.354;15.754;2023-12-29T11:01:18;1.77;;;1.20;;
13374;SDS011;6756;51.354;15.754;2023-12-29T11:05:21;2.00;;;1.50;;
13374;SDS011;6756;51.354;15.754;2023-12-29T11:09:29;4.23;;;1.67;;
13374;SDS011;6756;51.354;15.754;2023-12-29T11:13:31;2.07;;;1.40;;
13374;SDS011;6756;51.354;15.754;2023-12-29T11:17:34;2.20;;;1.47;;
13374;SDS011;6756;51.354;15.754;2023-12-29T11:21:35;2.20;;;1.43;;
13374;SDS011;6756;51.354;15.754;2023-12-29T11:25:37;2.67;;;1.60;;
13374;SDS011;6756;51.354;15.754;2023-12-29T11:29:38;2.60;;;1.63;;
13374;SDS011;6756;51.354;15.754;2023-12-29T11:33:43;2.83;;;1.53;;
13374;SDS011;6756;51.354;15.754;2023-12-29T11:37:58;2.13;;;1.50;;
13374;SDS011;6756;51.354;15.754;2023-12-29T11:42:17;2.57;;;1.53;;
13374;SDS011;6756;51.354;15.754;2023-12-29T11:46:32;6.00;;;5.40;;
13374;SDS011;6756;51.354;15.754;2023-12-29T11:50:36;2.10;;;1.57;;
13374;SDS011;6756;51.354;15.754;2023-12-29T11:54:38;2.57;;;1.67;;
13374;SDS011;6756;51.354;15.754;2023-12-29T11:58:39;2.70;;;1.57;;
13374;SDS011;6756;51.354;15.754;2023-12-29T12:02:40;1.77;;;1.23;;
13374;SDS011;6756;51.354;15.754;2023-12-29T12:06:41;2.80;;;1.40;;
13374;SDS011;6756;51.354;15.754;2023-12-29T12:10:42;3.50;;;1.60;;
13374;SDS011;6756;51.354;15.754;2023-12-29T12:18:49;3.03;;;1.40;;
13374;SDS011;6756;51.354;15.754;2023-12-29T12:22:56;2.20;;;1.50;;
13374;SDS011;6756;51.354;15.754;2023-12-29T12:27:09;2.10;;;1.40;;
13374;SDS011;6756;51.354;15.754;2023-12-29T12:31:10;2.67;;;1.30;;
13374;SDS011;6756;51.354;15.754;2023-12-29T12:35:13;1.83;;;1.27;;
13374;SDS011;6756;51.354;15.754;2023-12-29T12:39:18;2.80;;;1.17;;
13374;SDS011;6756;51.354;15.754;2023-12-29T12:43:19;2.00;;;1.30;;
13374;SDS011;6756;51.354;15.754;2023-12-29T12:47:31;1.93;;;1.30;;
13374;SDS011;6756;51.354;15.754;2023-12-29T12:51:34;4.07;;;1.70;;
13374;SDS011;6756;51.354;15.754;2023-12-29T12:55:35;3.83;;;1.63;;
13374;SDS011;6756;51.354;15.754;2023-12-29T12:59:38;3.07;;;1.70;;
13374;SDS011;6756;51.354;15.754;2023-12-29T13:03:39;2.80;;;1.70;;
13374;SDS011;6756;51.354;15.754;2023-12-29T13:07:41;2.80;;;1.87;;
13374;SDS011;6756;51.354;15.754;2023-12-29T13:11:42;7.97;;;2.10;;
13374;SDS011;6756;51.354;15.754;2023-12-29T13:15:49;3.83;;;1.80;;
13374;SDS011;6756;51.354;15.754;2023-12-29T13:19:58;2.77;;;1.70;;
13374;SDS011;6756;51.354;15.754;2023-12-29T13:24:03;3.27;;;1.60;;
13374;SDS011;6756;51.354;15.754;2023-12-29T13:28:13;3.83;;;1.67;;
13374;SDS011;6756;51.354;15.754;2023-12-29T13:32:36;3.73;;;2.93;;
13374;SDS011;6756;51.354;15.754;2023-12-29T13:36:42;3.33;;;2.60;;
13374;SDS011;6756;51.354;15.754;2023-12-29T13:41:00;2.80;;;2.00;;
13374;SDS011;6756;51.354;15.754;2023-12-29T13:45:10;2.10;;;1.43;;
13374;SDS011;6756;51.354;15.754;2023-12-29T13:49:12;2.87;;;1.50;;
13374;SDS011;6756;51.354;15.754;2023-12-29T13:53:17;4.20;;;1.70;;
13374;SDS011;6756;51.354;15.754;2023-12-29T13:57:31;2.93;;;1.93;;
13374;SDS011;6756;51.354;15.754;2023-12-29T14:01:36;3.33;;;1.80;;
13374;SDS011;6756;51.354;15.754;2023-12-29T14:05:47;2.43;;;1.83;;
13374;SDS011;6756;51.354;15.754;2023-12-29T14:09:54;3.47;;;1.80;;
13374;SDS011;6756;51.354;15.754;2023-12-29T14:13:56;3.23;;;1.80;;
13374;SDS011;6756;51.354;15.754;2023-12-29T14:17:57;2.40;;;1.67;;
13374;SDS011;6756;51.354;15.754;2023-12-29T14:21:59;3.87;;;1.97;;
13374;SDS011;6756;51.354;15.754;2023-12-29T14:26:03;3.13;;;1.97;;
13374;SDS011;6756;51.354;15.754;2023-12-29T14:30:17;4.67;;;1.63;;
13374;SDS011;6756;51.354;15.754;2023-12-29T14:34:19;2.80;;;1.70;;
13374;SDS011;6756;51.354;15.754;2023-12-29T14:38:20;4.30;;;2.20;;
13374;SDS011;6756;51.354;15.754;2023-12-29T14:42:21;2.63;;;1.90;;
13374;SDS011;6756;51.354;15.754;2023-12-29T14:46:22;9.07;;;4.90;;
13374;SDS011;6756;51.354;15.754;2023-12-29T14:50:23;3.63;;;2.00;;
13374;SDS011;6756;51.354;15.754;2023-12-29T14:54:25;3.77;;;1.93;;
13374;SDS011;6756;51.354;15.754;2023-12-29T14:58:26;3.53;;;1.87;;
13374;SDS011;6756;51.354;15.754;2023-12-29T15:02:30;3.53;;;2.20;;
13374;SDS011;6756;51.354;15.754;2023-12-29T15:06:31;4.43;;;1.80;;
13374;SDS011;6756;51.354;15.754;2023-12-29T15:10:32;2.20;;;1.50;;
13374;SDS011;6756;51.354;15.754;2023-12-29T15:14:34;1.77;;;1.47;;
13374;SDS011;6756;51.354;15.754;2023-12-29T15:18:35;3.80;;;2.00;;
13374;SDS011;6756;51.354;15.754;2023-12-29T15:22:36;3.80;;;1.93;;
13374;SDS011;6756;51.354;15.754;2023-12-29T15:26:37;3.30;;;1.80;;
13374;SDS011;6756;51.354;15.754;2023-12-29T15:30:38;3.30;;;1.80;;
13374;SDS011;6756;51.354;15.754;2023-12-29T15:34:39;3.97;;;1.90;;
13374;SDS011;6756;51.354;15.754;2023-12-29T15:38:39;3.47;;;1.77;;
13374;SDS011;6756;51.354;15.754;2023-12-29T15:42:40;4.23;;;2.00;;
13374;SDS011;6756;51.354;15.754;2023-12-29T15:46:41;3.93;;;1.83;;
13374;SDS011;6756;51.354;15.754;2023-12-29T15:50:43;2.90;;;1.50;;
13374;SDS011;6756;51.354;15.754;2023-12-29T15:54:44;2.90;;;1.93;;
13374;SDS011;6756;51.354;15.754;2023-12-29T15:58:45;3.20;;;2.00;;
13374;SDS011;6756;51.354;15.754;2023-12-29T16:02:46;4.20;;;2.00;;
13374;SDS011;6756;51.354;15.754;2023-12-29T16:06:47;2.20;;;1.40;;
13374;SDS011;6756;51.354;15.754;2023-12-29T16:10:48;2.23;;;1.43;;
13374;SDS011;6756;51.354;15.754;2023-12-29T16:14:49;4.27;;;1.60;;
13374;SDS011;6756;51.354;15.754;2023-12-29T16:18:50;2.93;;;1.50;;
13374;SDS011;6756;51.354;15.754;2023-12-29T16:22:51;4.87;;;1.90;;
13374;SDS011;6756;51.354;15.754;2023-12-29T16:26:53;2.77;;;1.80;;
13374;SDS011;6756;51.354;15.754;2023-12-29T16:30:54;3.80;;;2.40;;
13374;SDS011;6756;51.354;15.754;2023-12-29T16:34:55;4.43;;;2.20;;
13374;SDS011;6756;51.354;15.754;2023-12-29T16:38:55;4.90;;;2.47;;
13374;SDS011;6756;51.354;15.754;2023-12-29T16:42:58;5.93;;;2.50;;
13374;SDS011;6756;51.354;15.754;2023-12-29T16:46:59;4.43;;;2.20;;
13374;SDS011;6756;51.354;15.754;2023-12-29T16:51:00;4.17;;;2.30;;
13374;SDS011;6756;51.354;15.754;2023-12-29T16:59:05;3.07;;;1.77;;
13374;SDS011;6756;51.354;15.754;2023-12-29T17:03:06;3.50;;;2.17;;
13374;SDS011;6756;51.354;15.754;2023-12-29T17:07:07;3.00;;;1.90;;
13374;SDS011;6756;51.354;15.754;2023-12-29T17:11:09;3.83;;;2.00;;
13374;SDS011;6756;51.354;15.754;2023-12-29T17:15:11;3.80;;;2.10;;
13374;SDS011;6756;51.354;15.754;2023-12-29T17:19:14;5.27;;;2.53;;
13374;SDS011;6756;51.354;15.754;2023-12-29T17:23:16;3.83;;;2.30;;
13374;SDS011;6756;51.354;15.754;2023-12-29T17:27:17;4.67;;;2.53;;
13374;SDS011;6756;51.354;15.754;2023-12-29T17:31:18;4.53;;;2.73;;
13374;SDS011;6756;51.354;15.754;2023-12-29T17:35:21;3.80;;;2.77;;
13374;SDS011;6756;51.354;15.754;2023-12-29T17:39:23;4.43;;;2.70;;
13374;SDS011;6756;51.354;15.754;2023-12-29T17:43:24;4.23;;;2.10;;
13374;SDS011;6756;51.354;15.754;2023-12-29T17:47:25;4.50;;;2.73;;
13374;SDS011;6756;51.354;15.754;2023-12-29T17:51:28;4.67;;;2.27;;
13374;SDS011;6756;51.354;15.754;2023-12-29T17:55:29;3.97;;;1.97;;
13374;SDS011;6756;51.354;15.754;2023-12-29T17:59:30;4.23;;;1.90;;
13374;SDS011;6756;51.354;15.754;2023-12-29T18:03:31;5.73;;;1.83;;
13374;SDS011;6756;51.354;15.754;2023-12-29T18:07:32;3.17;;;2.43;;
13374;SDS011;6756;51.354;15.754;2023-12-29T18:11:37;6.23;;;2.63;;
13374;SDS011;6756;51.354;15.754;2023-12-29T18:15:38;3.30;;;2.27;;
13374;SDS011;6756;51.354;15.754;2023-12-29T18:19:40;3.47;;;2.07;;
13374;SDS011;6756;51.354;15.754;2023-12-29T18:23:41;3.67;;;2.13;;
13374;SDS011;6756;51.354;15.754;2023-12-29T18:27:42;3.83;;;2.20;;
13374;SDS011;6756;51.354;15.754;2023-12-29T18:31:45;3.63;;;2.00;;
13374;SDS011;6756;51.354;15.754;2023-12-29T18:35:46;3.53;;;2.10;;
13374;SDS011;6756;51.354;15.754;2023-12-29T18:39:47;4.00;;;2.07;;
13374;SDS011;6756;51.354;15.754;2023-12-29T18:43:48;4.10;;;1.73;;
13374;SDS011;6756;51.354;15.754;2023-12-29T18:47:50;3.07;;;2.27;;
13374;SDS011;6756;51.354;15.754;2023-12-29T18:51:51;3.13;;;1.70;;
13374;SDS011;6756;51.354;15.754;2023-12-29T18:55:55;7.47;;;1.87;;
13374;SDS011;6756;51.354;15.754;2023-12-29T18:59:58;2.03;;;1.50;;
13374;SDS011;6756;51.354;15.754;2023-12-29T19:03:59;3.57;;;2.40;;
13374;SDS011;6756;51.354;15.754;2023-12-29T19:08:00;3.57;;;1.90;;
13374;SDS011;6756;51.354;15.754;2023-12-29T19:12:04;3.57;;;1.90;;
13374;SDS011;6756;51.354;15.754;2023-12-29T19:16:27;5.43;;;2.33;;
13374;SDS011;6756;51.354;15.754;2023-12-29T19:20:30;3.77;;;2.10;;
13374;SDS011;6756;51.354;15.754;2023-12-29T19:24:33;3.43;;;2.00;;
13374;SDS011;6756;51.354;15.754;2023-12-29T19:28:38;4.40;;;2.07;;
13374;SDS011;6756;51.354;15.754;2023-12-29T19:32:39;5.27;;;2.57;;
13374;SDS011;6756;51.354;15.754;2023-12-29T19:36:42;3.83;;;2.10;;
13374;SDS011;6756;51.354;15.754;2023-12-29T19:40:43;4.50;;;2.03;;
13374;SDS011;6756;51.354;15.754;2023-12-29T19:44:46;2.90;;;2.00;;
13374;SDS011;6756;51.354;15.754;2023-12-29T19:48:47;3.73;;;1.73;;
13374;SDS011;6756;51.354;15.754;2023-12-29T19:52:47;2.67;;;1.70;;
13374;SDS011;6756;51.354;15.754;2023-12-29T19:56:48;2.10;;;1.67;;
13374;SDS011;6756;51.354;15.754;2023-12-29T20:00:52;2.47;;;1.40;;
13374;SDS011;6756;51.354;15.754;2023-12-29T20:04:53;2.40;;;1.57;;
13374;SDS011;6756;51.354;15.754;2023-12-29T20:08:54;2.07;;;1.40;;
13374;SDS011;6756;51.354;15.754;2023-12-29T20:12:55;3.17;;;1.30;;
13374;SDS011;6756;51.354;15.754;2023-12-29T20:16:56;2.40;;;1.20;;
13374;SDS011;6756;51.354;15.754;2023-12-29T20:20:57;3.63;;;1.20;;
13374;SDS011;6756;51.354;15.754;2023-12-29T20:24:58;1.40;;;1.10;;
13374;SDS011;6756;51.354;15.754;2023-12-29T20:28:59;2.00;;;1.10;;
13374;SDS011;6756;51.354;15.754;2023-12-29T20:33:00;2.10;;;1.40;;
13374;SDS011;6756;51.354;15.754;2023-12-29T20:37:01;2.67;;;1.50;;
13374;SDS011;6756;51.354;15.754;2023-12-29T20:41:02;2.73;;;1.43;;
13374;SDS011;6756;51.354;15.754;2023-12-29T20:45:03;2.40;;;1.60;;
13374;SDS011;6756;51.354;15.754;2023-12-29T20:49:04;2.37;;;1.47;;
13374;SDS011;6756;51.354;15.754;2023-12-29T20:53:05;3.43;;;1.37;;
13374;SDS011;6756;51.354;15.754;2023-12-29T20:57:06;1.60;;;1.30;;
13374;SDS011;6756;51.354;15.754;2023-12-29T21:01:07;1.43;;;1.30;;
13374;SDS011;6756;51.354;15.754;2023-12-29T21:05:08;3.13;;;1.33;;
13374;SDS011;6756;51.354;15.754;2023-12-29T21:09:09;1.87;;;1.13;;
13374;SDS011;6756;51.354;15.754;2023-12-29T21:13:12;2.20;;;1.40;;
13374;SDS011;6756;51.354;15.754;2023-12-29T21:17:13;1.23;;;1.10;;
13374;SDS011;6756;51.354;15.754;2023-12-29T21:21:14;1.30;;;1.00;;
13374;SDS011;6756;51.354;15.754;2023-12-29T21:25:18;2.10;;;1.30;;
13374;SDS011;6756;51.354;15.754;2023-12-29T21:29:19;2.27;;;1.20;;
13374;SDS011;6756;51.354;15.754;2023-12-29T21:33:20;1.73;;;1.10;;
13374;SDS011;6756;51.354;15.754;2023-12-29T21:37:21;2.67;;;1.40;;
13374;SDS011;6756;51.354;15.754;2023-12-29T21:41:25;2.33;;;1.60;;
13374;SDS011;6756;51.354;15.754;2023-12-29T21:45:37;1.47;;;1.23;;
13374;SDS011;6756;51.354;15.754;2023-12-29T21:49:38;2.53;;;1.43;;
13374;SDS011;6756;51.354;15.754;2023-12-29T21:53:39;3.47;;;1.20;;
13374;SDS011;6756;51.354;15.754;2023-12-29T21:57:43;1.70;;;1.30;;
13374;SDS011;6756;51.354;15.754;2023-12-29T22:01:44;2.03;;;1.20;;
13374;SDS011;6756;51.354;15.754;2023-12-29T22:05:45;2.10;;;1.40;;
13374;SDS011;6756;51.354;15.754;2023-12-29T22:09:45;2.97;;;1.70;;
13374;SDS011;6756;51.354;15.754;2023-12-29T22:13:46;3.10;;;1.67;;
13374;SDS011;6756;51.354;15.754;2023-12-29T22:17:47;2.30;;;1.27;;
13374;SDS011;6756;51.354;15.754;2023-12-29T22:21:50;2.43;;;1.40;;
13374;SDS011;6756;51.354;15.754;2023-12-29T22:25:53;1.60;;;1.07;;
13374;SDS011;6756;51.354;15.754;2023-12-29T22:29:54;1.87;;;1.40;;
13374;SDS011;6756;51.354;15.754;2023-12-29T22:33:55;2.30;;;1.57;;
13374;SDS011;6756;51.354;15.754;2023-12-29T22:37:56;2.03;;;1.30;;
13374;SDS011;6756;51.354;15.754;2023-12-29T22:41:57;2.30;;;1.30;;
13374;SDS011;6756;51.354;15.754;2023-12-29T22:45:59;1.90;;;1.20;;
13374;SDS011;6756;51.354;15.754;2023-12-29T22:50:00;2.70;;;1.20;;
13374;SDS011;6756;51.354;15.754;2023-12-29T22:54:01;2.87;;;1.10;;
13374;SDS011;6756;51.354;15.754;2023-12-29T22:58:02;1.07;;;0.90;;
13374;SDS011;6756;51.354;15.754;2023-12-29T23:02:03;2.00;;;1.23;;
13374;SDS011;6756;51.354;15.754;2023-12-29T23:06:04;2.47;;;1.30;;
13374;SDS011;6756;51.354;15.754;2023-12-29T23:10:08;1.20;;;1.00;;
13374;SDS011;6756;51.354;15.754;2023-12-29T23:14:10;1.40;;;0.90;;
13374;SDS011;6756;51.354;15.754;2023-12-29T23:18:11;1.60;;;1.37;;
13374;SDS011;6756;51.354;15.754;2023-12-29T23:22:11;1.20;;;1.00;;
13374;SDS011;6756;51.354;15.754;2023-12-29T23:26:12;2.37;;;1.40;;
13374;SDS011;6756;51.354;15.754;2023-12-29T23:30:14;1.63;;;1.23;;
13374;SDS011;6756;51.354;15.754;2023-12-29T23:34:15;1.87;;;1.20;;
13374;SDS011;6756;51.354;15.754;2023-12-29T23:38:18;1.50;;;1.13;;
13374;SDS011;6756;51.354;15.754;2023-12-29T23:42:19;2.33;;;1.20;;
13374;SDS011;6756;51.354;15.754;2023-12-29T23:46:21;2.40;;;1.50;;
13374;SDS011;6756;51.354;15.754;2023-12-29T23:50:21;2.23;;;1.47;;
13374;SDS011;6756;51.354;15.754;2023-12-29T23:54:22;1.47;;;1.17;;
13374;SDS011;6756;51.354;15.754;2023-12-29T23:58:24;2.63;;;1.40;;
